Time;durP1;ratioP1;P1;durP2;ratioP2;P2;SDS_P1;SDS_P2;PMS_P1;PMS_P2;Temp;Humidity;BMP_temperature;BMP_pressure;BME280_temperature;BME280_humidity;BME280_pressure;Samples;Min_cycle;Max_cycle;Signal;HPM_P1;HPM_P2
2022/12/10 00:00:51;;;;;;;;;;;;;;;-4.38;100.00;100883.09;6216868;23;20221;-79
2022/12/10 00:03:16;;;;;;;;;;;;;;;-4.39;100.00;100894.09;6215999;23;19919;-79
2022/12/10 00:05:42;;;;;;;;;;;;;;;-4.40;100.00;100880.50;6216976;23;19966;-79
2022/12/10 00:08:07;;;;;;;;;;;;;;;-4.40;100.00;100890.69;6217176;23;20292;-79
2022/12/10 00:10:32;;;;;;;;;;;;;;;-4.39;100.00;100887.31;6215417;23;19943;-79
2022/12/10 00:12:57;;;;;;;;;;;;;;;-4.39;100.00;100894.09;6217005;23;19982;-79
2022/12/10 00:15:22;;;;;;;;;;;;;;;-4.40;100.00;100897.47;6216734;23;19918;-78
2022/12/10 00:17:48;;;;;;;;;;;;;;;-4.40;100.00;100898.31;6216009;23;19912;-78
2022/12/10 00:20:14;;;;;;;;;;;;;;;-4.40;100.00;100894.91;6216754;23;19916;-78
2022/12/10 00:22:39;;;;;;;;;;;;;;;-4.42;100.00;100899.06;6216222;23;19919;-79
2022/12/10 00:25:04;;;;;;;;;;;;;;;-4.42;100.00;100901.59;6215185;23;20279;-78
2022/12/10 00:27:30;;;;;;;;;;;;;;;-4.37;100.00;100905.22;6215630;23;20076;-78
2022/12/10 00:29:55;;;;;;;;;;;;;;;-4.37;100.00;100905.22;6216049;23;19936;-78
2022/12/10 00:32:20;;;;;;;;;;;;;;;-4.35;100.00;100906.13;6214304;23;20329;-78
2022/12/10 00:34:45;;;;;;;;;;;;;;;-4.32;100.00;100908.78;6215374;23;19916;-78
2022/12/10 00:37:11;;;;;;;;;;;;;;;-4.31;100.00;100910.53;6215809;23;19918;-78
2022/12/10 00:39:36;;;;;;;;;;;;;;;-4.32;100.00;100909.63;6214615;23;19916;-78
2022/12/10 00:42:01;;;;;;;;;;;;;;;-4.33;100.00;100909.59;6216012;23;19908;-78
2022/12/10 00:44:27;;;;;;;;;;;;;;;-4.36;100.00;100907.78;6216467;23;19959;-78
2022/12/10 00:46:52;;;;;;;;;;;;;;;-4.40;100.00;100902.53;6215785;23;19935;-78
2022/12/10 00:49:17;;;;;;;;;;;;;;;-4.42;100.00;100901.59;6216532;23;19908;-78
2022/12/10 00:51:42;;;;;;;;;;;;;;;-4.44;100.00;100898.16;6216239;23;19935;-78
2022/12/10 00:54:08;;;;;;;;;;;;;;;-4.44;100.00;100899.03;6215812;23;19912;-78
2022/12/10 00:56:33;;;;;;;;;;;;;;;-4.45;100.00;100887.09;6216344;23;20305;-78
2022/12/10 00:58:59;;;;;;;;;;;;;;;-4.48;100.00;100890.41;6215443;23;19916;-78
2022/12/10 01:01:32;;;;;;;;;;;;;;;-4.51;100.00;100885.19;6215410;23;19915;-78
2022/12/10 01:03:58;;;;;;;;;;;;;;;-4.50;100.00;100893.69;6216169;23;19970;-78
2022/12/10 01:06:28;;;;;;;;;;;;;;;-4.50;100.00;100884.38;6214284;23;19912;-78
2022/12/10 01:08:54;;;;;;;;;;;;;;;-4.52;100.00;100883.44;6216324;23;19912;-77
2022/12/10 01:11:21;;;;;;;;;;;;;;;-4.54;100.00;100891.84;6215012;23;19966;-78
2022/12/10 01:13:47;;;;;;;;;;;;;;;-4.57;100.00;100897.69;6214744;23;19922;-78
2022/12/10 01:16:13;;;;;;;;;;;;;;;-4.60;100.00;100884.84;6215346;23;19995;-77
2022/12/10 01:18:39;;;;;;;;;;;;;;;-4.59;100.00;100896.75;6216316;23;19983;-77
2022/12/10 01:21:09;;;;;;;;;;;;;;;-4.61;100.00;100898.38;6214965;23;19967;-77
2022/12/10 01:23:35;;;;;;;;;;;;;;;-4.58;100.00;100895.97;6216192;23;19959;-77
2022/12/10 01:26:02;;;;;;;;;;;;;;;-4.54;100.00;100894.41;6216079;23;20279;-78
2022/12/10 01:28:28;;;;;;;;;;;;;;;-4.50;100.00;100898.78;6214428;23;19923;-77
2022/12/10 01:30:53;;;;;;;;;;;;;;;-4.49;100.00;100901.38;6216216;23;19966;-77
2022/12/10 01:33:18;;;;;;;;;;;;;;;-4.47;100.00;100904.00;6215871;23;19951;-77
2022/12/10 01:35:43;;;;;;;;;;;;;;;-4.44;100.00;100914.28;6214858;23;19987;-78
2022/12/10 01:38:08;;;;;;;;;;;;;;;-4.41;100.00;100906.78;6216040;23;19912;-77
2022/12/10 01:40:37;;;;;;;;;;;;;;;-4.36;100.00;100923.06;6215722;23;19916;-78
2022/12/10 01:43:02;;;;;;;;;;;;;;;-4.27;100.00;100923.41;6215380;23;19918;-78
2022/12/10 01:45:27;;;;;;;;;;;;;;;-4.19;100.00;100930.47;6215392;23;19912;-77
2022/12/10 01:47:52;;;;;;;;;;;;;;;-4.11;100.00;100935.06;6215891;23;19912;-77
2022/12/10 01:50:18;;;;;;;;;;;;;;;-4.04;100.00;100925.97;6214467;23;19919;-78
2022/12/10 01:52:43;;;;;;;;;;;;;;;-4.00;100.00;100935.44;6215348;23;19994;-77
2022/12/10 01:55:28;;;;;;;;;;;;;;;-3.96;100.00;100926.22;6214815;23;19947;-77
2022/12/10 01:57:53;;;;;;;;;;;;;;;-3.92;100.00;100928.09;6215456;23;19947;-78
2022/12/10 02:00:18;;;;;;;;;;;;;;;-3.88;100.00;100917.22;6215514;23;19919;-77
2022/12/10 02:03:07;;;;;;;;;;;;;;;-3.84;100.00;100917.34;6214487;23;19912;-78
2022/12/10 02:05:36;;;;;;;;;;;;;;;-3.80;100.00;100926.84;6214894;23;19911;-77
2022/12/10 02:08:18;;;;;;;;;;;;;;;-3.78;100.00;100925.22;6214866;23;19919;-78
2022/12/10 02:10:46;;;;;;;;;;;;;;;-3.78;100.00;100922.69;6213680;23;20347;-78
2022/12/10 02:13:17;;;;;;;;;;;;;;;-3.73;100.00;100927.06;6214627;23;19912;-77
2022/12/10 02:15:56;;;;;;;;;;;;;;;-3.70;100.00;100920.38;6214870;23;19966;-78
2022/12/10 02:18:31;;;;;;;;;;;;;;;-3.69;100.00;100923.84;6214493;23;19915;-78
2022/12/10 02:20:59;;;;;;;;;;;;;;;-3.67;100.00;100923.03;6215469;23;19916;-77
2022/12/10 02:23:26;;;;;;;;;;;;;;;-3.64;100.00;100915.50;6214216;23;19983;-77
2022/12/10 02:26:02;;;;;;;;;;;;;;;-3.59;100.00;100913.16;6215269;23;19950;-77
2022/12/10 02:28:36;;;;;;;;;;;;;;;-3.57;100.00;100916.59;6214651;23;19912;-78
2022/12/10 02:31:03;;;;;;;;;;;;;;;-3.55;100.00;100918.38;6214010;23;20455;-77
2022/12/10 02:33:30;;;;;;;;;;;;;;;-3.52;100.00;100920.19;6214309;23;19916;-77
2022/12/10 02:35:56;;;;;;;;;;;;;;;-3.48;100.00;100913.50;6214677;23;19919;-78
2022/12/10 02:38:25;;;;;;;;;;;;;;;-3.45;100.00;100913.63;6214359;23;19911;-77
2022/12/10 02:40:53;;;;;;;;;;;;;;;-3.43;100.00;100912.00;6215347;23;19919;-77
2022/12/10 02:43:18;;;;;;;;;;;;;;;-3.42;100.00;100908.63;6215074;23;19955;-77
2022/12/10 02:45:44;;;;;;;;;;;;;;;-3.42;100.00;100912.03;6214171;23;20320;-77
2022/12/10 02:48:11;;;;;;;;;;;;;;;-3.41;100.00;100906.13;6215393;23;19912;-77
2022/12/10 02:50:36;;;;;;;;;;;;;;;-3.39;100.00;100899.41;6215268;23;19912;-78
2022/12/10 02:53:01;;;;;;;;;;;;;;;-3.38;100.00;100900.25;6214604;23;19915;-77
2022/12/10 02:55:30;;;;;;;;;;;;;;;-3.35;100.00;100901.22;6214899;23;19911;-77
2022/12/10 02:58:01;;;;;;;;;;;;;;;-3.32;100.00;100905.56;6216180;23;19919;-77
2022/12/10 03:00:26;;;;;;;;;;;;;;;-3.28;100.00;100906.53;6216311;23;19912;-77
2022/12/10 03:03:10;;;;;;;;;;;;;;;-3.26;100.00;100910.03;6217292;23;20239;-77
2022/12/10 03:05:42;;;;;;;;;;;;;;;-3.25;100.00;100922.81;6216162;23;20265;-77
2022/12/10 03:08:07;;;;;;;;;;;;;;;-3.24;100.00;100926.22;6217715;23;20046;-77
2022/12/10 03:10:35;;;;;;;;;;;;;;;-3.23;100.00;100920.31;6217318;23;19998;-78
2022/12/10 03:13:08;;;;;;;;;;;;;;;-3.21;100.00;100914.44;6216523;23;19974;-77
2022/12/10 03:15:34;;;;;;;;;;;;;;;-3.21;100.00;100919.53;6216636;23;20387;-77
2022/12/10 03:18:02;;;;;;;;;;;;;;;-3.18;100.00;100906.88;6217396;23;20003;-77
2022/12/10 03:20:28;;;;;;;;;;;;;;;-3.16;100.00;100918.00;6215782;23;20024;-78
2022/12/10 03:22:53;;;;;;;;;;;;;;;-3.17;100.00;100917.94;6217293;23;19908;-78
2022/12/10 03:25:20;;;;;;;;;;;;;;;-3.19;100.00;100923.00;6216599;23;19912;-77
2022/12/10 03:27:49;;;;;;;;;;;;;;;-3.18;100.00;100924.72;6216530;23;19912;-78
2022/12/10 03:30:14;;;;;;;;;;;;;;;-3.17;100.00;100916.28;6216822;23;19928;-78
2022/12/10 03:32:40;;;;;;;;;;;;;;;-3.15;100.00;100912.09;6217233;23;20304;-78
2022/12/10 03:35:05;;;;;;;;;;;;;;;-3.13;100.00;100918.13;6216200;23;19974;-77
2022/12/10 03:37:31;;;;;;;;;;;;;;;-3.13;100.00;100925.78;6216646;23;20354;-78
2022/12/10 03:39:58;;;;;;;;;;;;;;;-3.14;100.00;100918.06;6216896;23;19923;-78
2022/12/10 03:42:23;;;;;;;;;;;;;;;-3.13;100.00;100925.78;6215370;23;19912;-78
2022/12/10 03:44:49;;;;;;;;;;;;;;;-3.11;100.00;100925.81;6216463;23;19911;-78
2022/12/10 03:47:14;;;;;;;;;;;;;;;-3.13;100.00;100918.13;6216587;23;19966;-78
2022/12/10 03:49:40;;;;;;;;;;;;;;;-3.12;100.00;100930.03;6215739;23;19915;-77
2022/12/10 03:52:06;;;;;;;;;;;;;;;-3.11;100.00;100933.47;6215799;23;19916;-78
2022/12/10 03:54:31;;;;;;;;;;;;;;;-3.12;100.00;100926.63;6216773;23;19919;-78
2022/12/10 03:56:56;;;;;;;;;;;;;;;-3.12;100.00;100926.63;6215770;23;19915;-78
2022/12/10 03:59:21;;;;;;;;;;;;;;;-3.12;100.00;100932.59;6216113;23;20003;-78
2022/12/10 04:01:46;;;;;;;;;;;;;;;-3.11;100.00;100930.91;6216175;23;19943;-78
2022/12/10 04:04:12;;;;;;;;;;;;;;;-3.09;100.00;100924.19;6215943;23;19912;-78
2022/12/10 04:06:37;;;;;;;;;;;;;;;-3.10;100.00;100936.06;6216358;23;19915;-78
2022/12/10 04:09:03;;;;;;;;;;;;;;;-3.08;100.00;100926.78;6216086;23;19916;-78
2022/12/10 04:11:28;;;;;;;;;;;;;;;-3.05;100.00;100931.13;6216378;23;19916;-78
2022/12/10 04:16:37;;;;;;;;;;;;;;;-3.01;100.00;100924.44;6215714;23;19923;-78
2022/12/10 04:19:06;;;;;;;;;;;;;;;-3.01;100.00;100927.84;6216820;23;19908;-78
2022/12/10 04:27:08;;;;;;;;;;;;;;;-3.01;100.00;100934.63;6216503;23;20003;-78
2022/12/10 04:29:33;;;;;;;;;;;;;;;-3.01;100.00;100927.84;6216189;23;19943;-78
2022/12/10 04:31:58;;;;;;;;;;;;;;;-3.01;100.00;100926.97;6215885;23;19996;-78
2022/12/10 04:34:24;;;;;;;;;;;;;;;-3.02;100.00;100932.91;6216009;23;19940;-78
2022/12/10 04:36:50;;;;;;;;;;;;;;;-3.02;100.00;100936.31;6216596;23;19912;-77
2022/12/10 04:39:15;;;;;;;;;;;;;;;-3.01;100.00;100937.19;6215632;23;19919;-78
2022/12/10 04:41:41;;;;;;;;;;;;;;;-3.00;100.00;100938.94;6216661;23;20331;-78
2022/12/10 04:44:07;;;;;;;;;;;;;;;-2.99;100.00;100938.09;6215070;23;20002;-78
2022/12/10 04:46:32;;;;;;;;;;;;;;;-2.99;100.00;100945.75;6216363;23;19912;-78
2022/12/10 04:48:57;;;;;;;;;;;;;;;-2.98;100.00;100942.38;6216137;23;19935;-78
2022/12/10 04:51:23;;;;;;;;;;;;;;;-2.99;100.00;100946.63;6214616;23;20229;-78
2022/12/10 04:53:48;;;;;;;;;;;;;;;-3.00;100.00;100937.25;6215697;23;19912;-78
2022/12/10 04:56:13;;;;;;;;;;;;;;;-2.98;100.00;100952.59;6214983;23;20339;-78
2022/12/10 04:58:38;;;;;;;;;;;;;;;-2.99;100.00;100945.75;6214366;23;19918;-78
2022/12/10 05:01:04;;;;;;;;;;;;;;;-3.00;100.00;100959.34;6215464;23;19923;-78
2022/12/10 05:03:30;;;;;;;;;;;;;;;-3.00;100.00;100955.09;6216132;23;19911;-78
2022/12/10 05:05:55;;;;;;;;;;;;;;;-3.00;100.00;100951.69;6214683;23;19962;-78
2022/12/10 05:08:20;;;;;;;;;;;;;;;-2.98;100.00;100953.44;6215789;23;19912;-78
2022/12/10 05:10:45;;;;;;;;;;;;;;;-2.97;100.00;100946.69;6215659;23;20320;-78
2022/12/10 05:13:10;;;;;;;;;;;;;;;-2.97;100.00;100946.69;6214842;23;19940;-78
2022/12/10 05:15:39;;;;;;;;;;;;;;;-2.97;100.00;100941.59;6215596;23;19962;-78
2022/12/10 05:18:04;;;;;;;;;;;;;;;-2.95;100.00;100947.59;6215007;23;19950;-78
2022/12/10 05:20:29;;;;;;;;;;;;;;;-2.93;100.00;100946.84;6214187;23;20122;-78
2022/12/10 05:25:52;;;;;;;;;;;;;;;-2.89;100.00;100947.78;6215361;23;19919;-78
2022/12/10 05:28:18;;;;;;;;;;;;;;;-2.88;100.00;100939.31;6214823;23;19912;-78
2022/12/10 05:30:43;;;;;;;;;;;;;;;-2.87;100.00;100941.06;6215807;23;19973;-78
2022/12/10 05:33:09;;;;;;;;;;;;;;;-2.89;100.00;100951.22;6214751;23;20383;-78
2022/12/10 05:35:34;;;;;;;;;;;;;;;-2.87;100.00;100956.38;6214984;23;19922;-78
2022/12/10 05:37:59;;;;;;;;;;;;;;;-2.87;100.00;100951.28;6215845;23;19916;-78
2022/12/10 05:40:24;;;;;;;;;;;;;;;-2.85;100.00;100949.63;6214018;23;20011;-78
2022/12/10 05:42:49;;;;;;;;;;;;;;;-2.86;100.00;100941.09;6214987;23;20217;-78
2022/12/10 05:45:15;;;;;;;;;;;;;;;-2.87;100.00;100941.06;6214154;23;20378;-77
2022/12/10 05:47:40;;;;;;;;;;;;;;;-2.87;100.00;100948.72;6214383;23;19912;-78
2022/12/10 05:50:05;;;;;;;;;;;;;;;-2.91;100.00;100940.09;6215731;23;19908;-78
2022/12/10 05:52:30;;;;;;;;;;;;;;;-2.90;100.00;100946.94;6214046;23;19920;-78
2022/12/10 05:54:55;;;;;;;;;;;;;;;-2.88;100.00;100949.53;6214590;23;20248;-78
2022/12/10 05:57:21;;;;;;;;;;;;;;;-2.89;100.00;100951.22;6215065;23;19962;-78
2022/12/10 05:59:46;;;;;;;;;;;;;;;-2.88;100.00;100954.63;6215937;23;19920;-78
2022/12/10 06:02:11;;;;;;;;;;;;;;;-2.89;100.00;100963.09;6214429;23;19912;-78
2022/12/10 06:04:36;;;;;;;;;;;;;;;-2.91;100.00;100954.53;6215609;23;19916;-78
2022/12/10 06:07:01;;;;;;;;;;;;;;;-2.91;100.00;100957.97;6215342;23;20328;-78
2022/12/10 06:09:27;;;;;;;;;;;;;;;-2.97;100.00;100955.22;6214609;23;19958;-78
2022/12/10 06:11:52;;;;;;;;;;;;;;;-2.96;100.00;100958.63;6215908;23;19912;-78
2022/12/10 06:14:17;;;;;;;;;;;;;;;-2.95;100.00;100962.91;6214945;23;19919;-78
2022/12/10 06:16:42;;;;;;;;;;;;;;;-2.93;100.00;100956.16;6215098;23;20240;-78
2022/12/10 06:19:07;;;;;;;;;;;;;;;-2.93;100.00;100962.13;6215204;23;19919;-78
2022/12/10 06:21:34;;;;;;;;;;;;;;;-2.92;100.00;100960.44;6214779;23;19911;-77
2022/12/10 06:23:59;;;;;;;;;;;;;;;-2.91;100.00;100962.16;6214724;23;20011;-78
2022/12/10 06:26:25;;;;;;;;;;;;;;;-2.89;100.00;100963.09;6215216;23;19916;-78
2022/12/10 06:28:50;;;;;;;;;;;;;;;-2.89;100.00;100960.56;6215700;23;20327;-77
2022/12/10 06:31:16;;;;;;;;;;;;;;;-2.87;100.00;100966.59;6214466;23;20280;-78
2022/12/10 06:33:41;;;;;;;;;;;;;;;-2.86;100.00;100970.84;6214937;23;19915;-78
2022/12/10 06:36:08;;;;;;;;;;;;;;;-2.85;100.00;100970.03;6215761;23;19938;-78
2022/12/10 06:38:33;;;;;;;;;;;;;;;-2.85;100.00;100970.03;6213909;23;19934;-78
2022/12/10 06:40:58;;;;;;;;;;;;;;;-2.85;100.00;100968.34;6215687;23;20344;-78
2022/12/10 06:43:23;;;;;;;;;;;;;;;-2.83;100.00;100974.38;6214925;23;20347;-78
2022/12/10 06:45:49;;;;;;;;;;;;;;;-2.82;100.00;100975.25;6214157;23;19912;-78
2022/12/10 06:48:14;;;;;;;;;;;;;;;-2.83;100.00;100971.81;6215119;23;19911;-78
2022/12/10 06:50:39;;;;;;;;;;;;;;;-2.85;100.00;100970.91;6214211;23;19915;-78
2022/12/10 06:53:04;;;;;;;;;;;;;;;-2.85;100.00;100970.91;6215678;23;19983;-78
2022/12/10 06:55:30;;;;;;;;;;;;;;;-2.85;100.00;100978.53;6215025;23;20317;-78
2022/12/10 06:57:55;;;;;;;;;;;;;;;-2.84;100.00;100987.09;6213355;23;19982;-78
2022/12/10 07:00:20;;;;;;;;;;;;;;;-2.85;100.00;100988.75;6215254;23;19947;-78
2022/12/10 07:02:46;;;;;;;;;;;;;;;-2.86;100.00;100996.38;6215266;23;19967;-78
2022/12/10 07:05:11;;;;;;;;;;;;;;;-2.85;100.00;100998.97;6214166;23;19912;-78
2022/12/10 07:07:37;;;;;;;;;;;;;;;-2.84;100.00;101002.41;6215402;23;19919;-78
2022/12/10 07:10:03;;;;;;;;;;;;;;;-2.81;100.00;101002.50;6215258;23;19908;-78
2022/12/10 07:12:28;;;;;;;;;;;;;;;-2.80;100.00;101003.38;6213642;23;20232;-78
2022/12/10 07:14:53;;;;;;;;;;;;;;;-2.78;100.00;101001.72;6215067;23;20013;-78
2022/12/10 07:17:18;;;;;;;;;;;;;;;-2.77;100.00;100999.22;6215367;23;19990;-77
2022/12/10 07:19:44;;;;;;;;;;;;;;;-2.77;100.00;100994.13;6214668;23;19912;-78
2022/12/10 07:22:09;;;;;;;;;;;;;;;-2.77;100.00;101001.78;6215041;23;19912;-77
2022/12/10 07:24:34;;;;;;;;;;;;;;;-2.76;100.00;101003.50;6215004;23;19912;-78
2022/12/10 07:26:59;;;;;;;;;;;;;;;-2.75;100.00;101007.78;6214312;23;19967;-78
2022/12/10 07:29:26;;;;;;;;;;;;;;;-2.74;100.00;101004.44;6214786;23;19994;-78
2022/12/10 07:31:51;;;;;;;;;;;;;;;-2.71;100.00;101008.78;6214870;23;19919;-78
2022/12/10 07:34:17;;;;;;;;;;;;;;;-2.72;100.00;101010.44;6214198;23;19916;-78
2022/12/10 07:36:42;;;;;;;;;;;;;;;-2.71;100.00;101009.66;6215293;23;19908;-78
2022/12/10 07:39:09;;;;;;;;;;;;;;;-2.71;100.00;101016.44;6215184;23;19920;-78
2022/12/10 07:41:35;;;;;;;;;;;;;;;-2.73;100.00;101008.72;6213854;23;19908;-78
2022/12/10 07:44:01;;;;;;;;;;;;;;;-2.69;100.00;101010.53;6215848;23;20022;-78
2022/12/10 07:46:27;;;;;;;;;;;;;;;-2.67;100.00;101020.81;6216358;23;20291;-78
2022/12/10 07:48:53;;;;;;;;;;;;;;;-2.65;100.00;101014.06;6216327;23;19912;-78
2022/12/10 07:51:20;;;;;;;;;;;;;;;-2.66;100.00;101023.41;6216634;23;19926;-78
2022/12/10 07:53:45;;;;;;;;;;;;;;;-2.65;100.00;101019.16;6216801;23;19918;-78
2022/12/10 07:56:11;;;;;;;;;;;;;;;-2.61;100.00;101028.69;6215921;23;19983;-78
2022/12/10 07:58:36;;;;;;;;;;;;;;;-2.64;100.00;101029.44;6217134;23;19947;-78
2022/12/10 08:01:05;;;;;;;;;;;;;;;-2.64;100.00;101028.59;6215846;23;20279;-78
2022/12/10 08:03:30;;;;;;;;;;;;;;;-2.64;100.00;101021.78;6216618;23;19915;-78
2022/12/10 08:06:22;;;;;;;;;;;;;;;-2.62;100.00;101025.28;6216839;23;19923;-78
2022/12/10 08:08:47;;;;;;;;;;;;;;;-2.62;100.00;101027.81;6212656;23;20332;-78
2022/12/10 08:11:13;;;;;;;;;;;;;;;-2.63;100.00;101036.28;6215722;23;19912;-78
2022/12/10 08:13:39;;;;;;;;;;;;;;;-2.65;100.00;101029.38;6217068;23;19916;-77
2022/12/10 08:16:05;;;;;;;;;;;;;;;-2.66;100.00;101037.88;6215929;23;19911;-77
2022/12/10 08:18:31;;;;;;;;;;;;;;;-2.65;100.00;101037.94;6216776;23;19916;-77
2022/12/10 08:20:56;;;;;;;;;;;;;;;-2.62;100.00;101035.47;6216374;23;20298;-78
2022/12/10 08:23:21;;;;;;;;;;;;;;;-2.60;100.00;101044.03;6214658;23;20319;-78
2022/12/10 08:25:46;;;;;;;;;;;;;;;-2.57;100.00;101048.38;6216413;23;19995;-79
2022/12/10 08:28:11;;;;;;;;;;;;;;;-2.56;100.00;101041.59;6215605;23;19943;-78
2022/12/10 08:30:37;;;;;;;;;;;;;;;-2.55;100.00;101050.97;6214775;23;19947;-78
2022/12/10 08:33:02;;;;;;;;;;;;;;;-2.55;100.00;101056.97;6215482;23;19922;-78
2022/12/10 08:35:28;;;;;;;;;;;;;;;-2.50;100.00;101054.56;6216419;23;19966;-78
2022/12/10 08:37:53;;;;;;;;;;;;;;;-2.48;100.00;101058.91;6214959;23;19936;-78
2022/12/10 08:40:18;;;;;;;;;;;;;;;-2.47;100.00;101060.63;6215683;23;19965;-77
2022/12/10 08:42:43;;;;;;;;;;;;;;;-2.46;100.00;101057.25;6216247;23;19912;-78
2022/12/10 08:45:09;;;;;;;;;;;;;;;-2.42;100.00;101073.53;6215402;23;19911;-78
2022/12/10 08:47:34;;;;;;;;;;;;;;;-2.39;100.00;101071.09;6215779;23;19919;-78
2022/12/10 08:49:59;;;;;;;;;;;;;;;-2.34;100.00;101074.66;6216986;23;19919;-78
2022/12/10 08:52:24;;;;;;;;;;;;;;;-2.31;100.00;101071.34;6214933;23;19970;-78
2022/12/10 08:56:19;;;;;;;94.35;25.77;;;;;;;-2.41;100.00;101075.28;5089734;27;20905;-78
2022/12/10 08:58:44;;;;;;;99.82;23.90;;;;;;;-2.57;100.00;101053.50;5089513;28;20036;-77
2022/12/10 09:01:12;;;;;;;100.78;29.08;;;;;;;-2.48;100.00;101074.22;5091199;28;20020;-78
2022/12/10 09:03:38;;;;;;;94.70;26.58;;;;;;;-2.45;100.00;101078.56;5089926;28;20083;-78
2022/12/10 09:06:06;;;;;;;109.00;27.17;;;;;;;-2.42;100.00;101081.19;5085368;28;20029;-78
2022/12/10 09:08:32;;;;;;;102.70;27.17;;;;;;;-2.52;100.00;101071.50;5069516;28;20025;-78
2022/12/10 09:10:58;;;;;;;95.47;25.10;;;;;;;-2.53;100.00;101065.53;5085517;28;20103;-77
2022/12/10 09:13:23;;;;;;;104.10;26.48;;;;;;;-2.56;100.00;101062.88;5089084;28;20543;-77
2022/12/10 09:15:50;;;;;;;89.10;26.67;;;;;;;-2.54;100.00;101062.94;5085151;28;20050;-77
2022/12/10 09:18:15;;;;;;;102.45;26.85;;;;;;;-2.36;100.00;101086.50;5077598;28;20020;-78
2022/12/10 09:20:41;;;;;;;92.47;26.65;;;;;;;-2.35;100.00;101085.72;5083201;28;20039;-77
2022/12/10 09:23:06;;;;;;;120.05;28.70;;;;;;;-2.30;100.00;101083.28;5091182;28;20480;-78
2022/12/10 09:25:31;;;;;;;101.00;26.48;;;;;;;-2.30;100.00;101084.16;5086108;28;20040;-78
2022/12/10 09:27:56;;;;;;;96.45;27.40;;;;;;;-2.23;100.00;101087.78;5085701;28;20126;-77
2022/12/10 09:30:22;;;;;;;96.18;26.50;;;;;;;-2.24;100.00;101079.25;5085591;28;20081;-78
2022/12/10 09:32:47;;;;;;;111.10;28.40;;;;;;;-2.17;100.00;101085.41;5084952;28;20051;-78
2022/12/10 09:35:13;;;;;;;99.32;28.00;;;;;;;-2.13;100.00;101093.25;5088652;28;20032;-78
2022/12/10 09:37:38;;;;;;;113.13;28.92;;;;;;;-2.09;100.00;101093.31;5089100;28;20379;-79
2022/12/10 09:40:04;;;;;;;95.63;26.50;;;;;;;-2.10;100.00;101095.00;5087917;28;20116;-78
2022/12/10 09:42:44;;;;;;;93.68;26.27;;;;;;;-2.22;100.00;101077.63;5088720;28;20073;-79
2022/12/10 09:45:39;;;;;;;101.53;25.75;;;;;;;-2.10;100.00;101104.38;5087390;28;20024;-79
2022/12/10 09:48:25;;;;;;;90.70;24.25;;;;;;;-2.09;100.00;101109.53;5077664;28;20119;-79
2022/12/10 09:51:09;;;;;;;89.57;24.63;;;;;;;-2.08;100.00;101108.72;5082818;28;20468;-79
2022/12/10 09:53:35;;;;;;;;;;;;;;;-2.03;100.00;101103.75;5073415;28;20024;-78
2022/12/10 09:56:00;;;;;;;84.43;24.85;;;;;;;-2.19;100.00;101077.72;5087429;28;19916;-79
2022/12/10 09:58:27;;;;;;;101.65;26.85;;;;;;;-2.00;100.00;101108.94;5087420;28;20524;-79
2022/12/10 10:00:59;;;;;;;95.40;26.50;;;;;;;-2.01;100.00;101109.78;5085476;28;20040;-79
2022/12/10 10:03:25;;;;;;;99.18;26.08;;;;;;;-2.00;100.00;101112.38;5088785;28;20025;-79
2022/12/10 10:05:53;;;;;;;92.88;26.85;;;;;;;-1.96;100.00;101103.13;5067685;28;20044;-79
2022/12/10 10:08:33;;;;;;;98.75;25.80;;;;;;;-1.94;100.00;101114.25;5066367;28;20035;-79
2022/12/10 10:10:59;;;;;;;87.60;25.08;;;;;;;-2.04;100.00;101102.88;5075055;28;20420;-79
2022/12/10 10:13:49;;;;;;;91.43;24.63;;;;;;;-1.93;100.00;101128.75;5066933;28;20025;-79
2022/12/10 10:16:36;;;;;;;74.20;23.95;;;;;;;-1.94;100.00;101129.59;5056686;28;20024;-79
2022/12/10 10:19:05;;;;;;;88.93;25.52;;;;;;;-1.96;100.00;101138.91;5065661;28;20063;-79
2022/12/10 10:21:42;;;;;;;83.60;23.33;;;;;;;-2.03;100.00;101122.47;5071120;28;20123;-79
2022/12/10 10:24:13;;;;;;;87.80;24.60;;;;;;;-1.94;100.00;101129.59;5066343;28;20032;-79
2022/12/10 10:26:38;;;;;;;86.63;24.73;;;;;;;-1.96;100.00;101126.13;5073671;28;20468;-79
2022/12/10 10:29:07;;;;;;;81.25;24.63;;;;;;;-2.01;100.00;101125.97;5073892;28;20040;-79
2022/12/10 10:31:34;;;;;;;85.03;25.83;;;;;;;-1.96;100.00;101133.81;5073004;28;20027;-79
2022/12/10 10:34:03;;;;;;;98.22;25.25;;;;;;;-1.92;100.00;101130.50;5071965;28;20082;-79
2022/12/10 10:36:32;;;;;;;90.38;24.23;;;;;;;-1.91;100.00;101127.13;5073536;28;20388;-80
2022/12/10 10:39:22;;;;;;;95.20;27.55;;;;;;;-1.92;100.00;101118.59;5074592;28;20464;-79
2022/12/10 10:41:52;;;;;;;85.22;25.58;;;;;;;-1.88;100.00;101122.97;5072070;28;20044;-79
2022/12/10 10:44:22;;;;;;;93.43;26.67;;;;;;;-1.82;100.00;101124.00;5061928;28;20029;-79
2022/12/10 10:46:51;;;;;;;89.65;25.25;;;;;;;-1.82;100.00;101127.44;5066929;28;20079;-80
2022/12/10 10:49:19;;;;;;;94.70;25.67;;;;;;;-1.85;100.00;101129.88;5068848;28;20028;-79
2022/12/10 10:51:45;;;;;;;90.03;25.52;;;;;;;-1.88;100.00;101111.91;5072841;28;20051;-79
2022/12/10 10:54:11;;;;;;;87.45;24.60;;;;;;;-1.80;100.00;101118.13;5071692;28;20099;-80
2022/12/10 10:56:42;;;;;;;85.25;23.70;;;;;;;-1.77;100.00;101123.31;5080819;28;20112;-80
2022/12/10 10:59:15;;;;;;;86.03;25.15;;;;;;;-1.76;100.00;101114.84;5071319;28;20479;-79
2022/12/10 11:01:48;;;;;;;90.95;25.55;;;;;;;-1.81;100.00;101092.50;5071338;28;20047;-80
2022/12/10 11:04:15;;;;;;;85.95;25.83;;;;;;;-1.70;100.00;101120.16;5073277;28;20077;-80
2022/12/10 11:06:41;;;;;;;93.95;25.58;;;;;;;-1.70;100.00;101115.03;5074079;28;20016;-80
2022/12/10 11:09:07;;;;;;;85.93;26.00;;;;;;;-1.72;100.00;101109.00;5063087;28;20057;-80
2022/12/10 11:11:36;;;;;;;95.35;26.55;;;;;;;-1.62;100.00;101111.84;5073272;28;20076;-79
2022/12/10 11:14:43;;;;;;;89.55;27.20;;;;;;;-1.56;100.00;101112.03;5074531;28;20043;-79
2022/12/10 11:17:09;;;;;;;95.85;26.55;;;;;;;-1.55;100.00;101113.75;5061541;28;20120;-79
2022/12/10 11:19:34;;;;;;;96.78;27.85;;;;;;;-1.54;100.00;101101.00;5068532;28;20112;-77
2022/12/10 11:22:17;;;;;;;87.88;25.23;;;;;;;-1.52;100.00;101106.16;5074206;28;20021;-81
2022/12/10 11:24:42;;;;;;;96.05;27.70;;;;;;;-1.55;100.00;101095.84;5073279;28;20039;-80
2022/12/10 11:27:32;;;;;;;91.70;25.77;;;;;;;-1.57;100.00;101089.81;5065778;28;20119;-81
2022/12/10 11:30:12;;;;;;;89.10;27.77;;;;;;;-1.50;100.00;101102.84;5071411;28;20032;-79
2022/12/10 11:33:01;;;;;;;90.43;25.98;;;;;;;-1.59;100.00;101087.22;5060775;28;20033;-81
2022/12/10 11:35:48;;;;;;;88.82;25.75;;;;;;;-1.58;100.00;101081.28;5071688;28;20039;-80
2022/12/10 11:38:25;;;;;;;87.15;27.23;;;;;;;-1.47;100.00;101102.94;5064482;28;20025;-80
2022/12/10 11:41:07;;;;;;;92.13;27.50;;;;;;;-1.47;100.00;101096.97;5072134;28;20078;-80
2022/12/10 11:43:50;;;;;;;92.55;27.05;;;;;;;-1.46;100.00;101094.44;5071979;28;20039;-80
2022/12/10 11:46:33;;;;;;;97.53;26.30;;;;;;;-1.47;100.00;101107.19;5059953;28;20032;-81
2022/12/10 11:49:23;;;;;;;77.35;24.08;;;;;;;-1.53;100.00;101095.09;5071867;28;20043;-82
2022/12/10 11:52:12;;;;;;;77.93;23.65;;;;;;;-1.53;100.00;101107.00;5063350;28;20444;-80
2022/12/10 11:54:58;;;;;;;81.35;24.52;;;;;;;-1.50;100.00;101104.53;5059221;28;20068;-81
2022/12/10 11:58:07;;;;;;;84.38;24.83;;;;;;;-1.44;100.00;101113.25;5067885;28;20036;-80
2022/12/10 12:00:47;;;;;;;82.78;23.38;;;;;;;-1.47;100.00;101107.19;5057387;28;20060;-80
2022/12/10 12:03:22;;;;;;;95.65;27.45;;;;;;;-1.47;100.00;101107.19;5063316;28;20383;-80
2022/12/10 12:05:50;;;;;;;84.05;26.50;;;;;;;-1.40;100.00;101105.69;5076103;28;20061;-80
2022/12/10 12:08:46;;;;;;;86.75;27.10;;;;;;;-1.39;100.00;101105.72;5065122;28;20365;-80
2022/12/10 12:11:30;;;;;;;80.28;23.92;;;;;;;-1.39;100.00;101105.72;5072370;28;20036;-80
2022/12/10 12:13:59;;;;;;;;;;;;;;;-1.38;100.00;101112.56;5073582;28;20031;-80
2022/12/10 12:16:37;;;;;;;79.82;24.58;;;;;;;-1.45;100.00;101108.94;5070234;28;19916;-80
2022/12/10 12:19:12;;;;;;;78.68;25.90;;;;;;;-1.50;100.00;101107.09;5069908;28;20024;-80